Terminal Aerodrome Forecast
Issued by NWS

Home | Current Version | Previous Version | Text Only | Print | Product List | Glossary On
Versions: 1 2 3 4 5 6 7 8 9 10 11 12 13 14 15 16 17 18 19 20 21 22 23 24 25 26 27 28 29 30 31 32 33
000
FTUS41 KOKX 301128
TAFTEB
TAF
KTEB 301128Z 3012/3112 VRB05KT 6SM BR BKN008 OVC015
      TEMPO 3012/3014 5SM BR
     FM301400 15007KT P6SM BKN008 OVC015
     FM302100 14007KT 5SM BR BKN008 OVC015
     FM310000 VRB05KT 4SM -DZ BR OVC007
     FM310400 VRB03KT 4SM -DZ BR OVC004=

USA.gov is the U.S. government's official web portal to all federal, state and local government web resources and services.